createdAt,value
2022-10-29T00:00:41.266Z,6.47
2022-10-29T00:03:08.611Z,6.55
2022-10-29T00:05:35.637Z,6.30
2022-10-29T00:08:03.096Z,5.43
2022-10-29T00:10:30.155Z,4.90
2022-10-29T00:13:00.952Z,6.20
2022-10-29T00:15:27.794Z,6.20
2022-10-29T00:17:54.719Z,4.75
2022-10-29T00:20:21.876Z,6.55
2022-10-29T00:22:48.451Z,6.07
2022-10-29T00:25:15.269Z,5.90
2022-10-29T00:27:41.900Z,6.72
2022-10-29T00:30:09.260Z,5.75
2022-10-29T00:32:35.903Z,5.93
2022-10-29T00:35:02.527Z,5.38
2022-10-29T00:37:29.105Z,5.57
2022-10-29T00:39:55.747Z,5.25
2022-10-29T00:42:22.325Z,6.07
2022-10-29T00:44:48.947Z,6.57
2022-10-29T00:47:27.615Z,6.22
2022-10-29T00:50:06.567Z,5.57
2022-10-29T00:52:37.218Z,5.65
2022-10-29T00:55:06.907Z,6.25
2022-10-29T00:57:40.068Z,6.75
2022-10-29T01:00:07.407Z,6.28
2022-10-29T01:02:35.490Z,5.63
2022-10-29T01:05:04.467Z,6.47
2022-10-29T01:07:31.078Z,5.45
2022-10-29T01:09:57.959Z,6.47
2022-10-29T01:13:10.787Z,6.20
2022-10-29T01:15:52.665Z,6.38
2022-10-29T01:18:30.876Z,6.65
2022-10-29T01:21:25.283Z,5.95
2022-10-29T01:24:18.811Z,5.22
2022-10-29T01:27:21.116Z,6.07
2022-10-29T01:30:01.251Z,5.50
2022-10-29T01:32:53.627Z,5.50
2022-10-29T01:35:46.317Z,5.50
2022-10-29T01:38:38.771Z,6.60
2022-10-29T01:41:23.124Z,5.95
2022-10-29T01:44:11.639Z,5.70
2022-10-29T01:46:46.462Z,7.13
2022-10-29T01:49:18.704Z,5.75
2022-10-29T01:51:47.180Z,7.13
2022-10-29T01:54:13.959Z,6.22
2022-10-29T01:56:40.569Z,6.68
2022-10-29T01:59:18.229Z,7.35
2022-10-29T02:02:23.693Z,6.78
2022-10-29T02:05:26.864Z,6.80
2022-10-29T02:07:56.025Z,6.25
2022-10-29T02:10:28.458Z,6.13
2022-10-29T02:12:57.120Z,6.45
2022-10-29T02:15:33.789Z,6.68
2022-10-29T02:18:02.658Z,6.28
2022-10-29T02:20:30.163Z,6.20
2022-10-29T02:22:57.079Z,7.25
2022-10-29T02:25:24.181Z,6.85
2022-10-29T02:27:50.847Z,6.60
2022-10-29T02:30:17.606Z,7.05
2022-10-29T02:32:44.546Z,7.35
2022-10-29T02:35:11.493Z,7.72
2022-10-29T02:37:38.240Z,6.65
2022-10-29T02:40:05.260Z,6.82
2022-10-29T02:42:31.854Z,7.00
2022-10-29T02:44:58.611Z,7.55
2022-10-29T02:47:25.301Z,7.72
2022-10-29T02:49:51.960Z,7.70
2022-10-29T02:52:18.610Z,6.85
2022-10-29T02:54:45.278Z,6.90
2022-10-29T02:57:11.930Z,7.50
2022-10-29T02:59:38.512Z,6.57
2022-10-29T03:02:05.506Z,6.85
2022-10-29T03:04:32.171Z,7.25
2022-10-29T03:06:58.953Z,7.47
2022-10-29T03:09:25.577Z,6.82
2022-10-29T03:11:52.195Z,7.80
2022-10-29T03:14:18.849Z,6.97
2022-10-29T03:16:45.419Z,7.15
2022-10-29T03:19:12.099Z,7.20
2022-10-29T03:21:38.768Z,7.47
2022-10-29T03:24:05.733Z,7.03
2022-10-29T03:26:32.330Z,6.88
2022-10-29T03:28:59.010Z,7.20
2022-10-29T03:31:25.624Z,7.32
2022-10-29T03:33:52.254Z,8.55
2022-10-29T03:36:19.024Z,8.55
2022-10-29T03:38:45.699Z,7.10
2022-10-29T04:23:36.687Z,7.53
2022-10-29T04:29:50.865Z,9.38
2022-10-29T04:32:17.555Z,8.98
2022-10-29T04:34:44.283Z,8.57
2022-10-29T04:37:10.882Z,8.40
2022-10-29T04:39:37.488Z,8.35
2022-10-29T04:42:04.140Z,8.10
2022-10-29T04:44:30.746Z,10.30
2022-10-29T04:46:57.412Z,9.13
2022-10-29T04:49:24.111Z,8.32
2022-10-29T04:51:50.773Z,8.93
2022-10-29T04:54:17.449Z,9.63
2022-10-29T04:56:44.181Z,9.10
2022-10-29T04:59:10.752Z,9.40
2022-10-29T05:01:37.419Z,8.90
2022-10-29T05:04:04.219Z,8.55
2022-10-29T05:06:30.817Z,8.80
2022-10-29T05:08:57.460Z,9.15
2022-10-29T05:11:24.191Z,7.63
2022-10-29T05:13:50.819Z,9.75
2022-10-29T05:16:17.648Z,9.02
2022-10-29T05:18:44.240Z,9.80
2022-10-29T05:21:10.944Z,9.27
2022-10-29T05:23:37.717Z,9.80
2022-10-29T05:26:04.465Z,9.48
2022-10-29T05:28:31.130Z,10.50
2022-10-29T05:31:02.451Z,9.07
2022-10-29T05:33:29.216Z,9.38
2022-10-29T05:35:55.822Z,9.68
2022-10-29T05:38:22.415Z,8.85
2022-10-29T05:40:49.155Z,9.10
2022-10-29T05:43:17.357Z,8.95
2022-10-29T05:45:44.548Z,9.35
2022-10-29T05:50:44.115Z,9.85
2022-10-29T05:53:12.983Z,9.50
2022-10-29T05:55:40.521Z,9.65
2022-10-29T05:58:11.143Z,9.60
2022-10-29T06:00:39.999Z,9.10
2022-10-29T06:03:14.195Z,9.50
2022-10-29T06:05:41.234Z,9.93
2022-10-29T06:08:08.361Z,9.20
2022-10-29T06:10:35.145Z,9.68
2022-10-29T06:13:01.912Z,9.77
2022-10-29T06:15:28.610Z,9.60
2022-10-29T06:17:55.384Z,9.57
2022-10-29T06:20:22.348Z,9.82
2022-10-29T06:22:57.987Z,10.13
2022-10-29T06:25:26.530Z,9.63
2022-10-29T06:28:07.335Z,9.85
2022-10-29T06:30:35.947Z,9.73
2022-10-29T06:33:04.634Z,9.55
2022-10-29T06:35:31.744Z,10.23
2022-10-29T06:37:59.111Z,9.80
2022-10-29T06:40:26.533Z,10.93
2022-10-29T06:43:07.099Z,9.40
2022-10-29T06:45:34.693Z,9.80
2022-10-29T06:48:01.999Z,9.77
2022-10-29T06:50:28.801Z,10.18
2022-10-29T06:52:57.894Z,9.88
2022-10-29T06:55:25.526Z,9.77
2022-10-29T06:58:01.972Z,9.27
2022-10-29T07:00:30.370Z,8.02
2022-10-29T07:02:57.592Z,8.88
2022-10-29T07:05:25.096Z,9.32
2022-10-29T07:07:56.716Z,9.98
2022-10-29T07:10:24.575Z,8.75
2022-10-29T07:12:51.532Z,9.32
2022-10-29T07:15:18.242Z,9.57
2022-10-29T07:17:58.737Z,9.35
2022-10-29T07:20:26.974Z,8.98
2022-10-29T07:22:53.721Z,8.65
2022-10-29T07:25:20.749Z,8.57
2022-10-29T07:27:47.421Z,9.30
2022-10-29T07:30:14.256Z,8.25
2022-10-29T07:32:40.868Z,8.90
2022-10-29T07:35:08.099Z,8.68
2022-10-29T07:37:34.868Z,8.20
2022-10-29T07:40:01.553Z,8.18
2022-10-29T07:42:28.294Z,8.55
2022-10-29T07:44:54.932Z,9.32
2022-10-29T07:47:21.539Z,8.52
2022-10-29T07:49:48.209Z,9.35
2022-10-29T07:52:14.953Z,9.05
2022-10-29T07:54:41.686Z,8.60
2022-10-29T07:57:08.274Z,9.80
2022-10-29T07:59:34.886Z,9.40
2022-10-29T08:02:01.674Z,8.30
2022-10-29T08:04:28.390Z,8.82
2022-10-29T08:06:55.028Z,8.70
2022-10-29T08:09:21.709Z,8.93
2022-10-29T08:11:48.436Z,8.35
2022-10-29T08:14:17.804Z,8.07
2022-10-29T08:16:46.859Z,8.82
2022-10-29T08:19:13.651Z,7.82
2022-10-29T08:21:40.343Z,8.63
2022-10-29T08:24:07.264Z,8.70
2022-10-29T08:26:33.981Z,8.65
2022-10-29T08:29:00.575Z,8.48
2022-10-29T08:31:27.187Z,7.80
2022-10-29T08:33:53.851Z,8.02
2022-10-29T08:36:20.523Z,8.07
2022-10-29T08:38:47.802Z,8.43
2022-10-29T08:41:32.691Z,8.05
2022-10-29T08:44:33.600Z,9.55
2022-10-29T08:47:12.835Z,9.13
2022-10-29T08:50:27.275Z,8.13
2022-10-29T08:55:45.810Z,7.97
2022-10-29T08:58:26.950Z,7.97
2022-10-29T09:00:57.846Z,8.85
2022-10-29T09:03:29.868Z,8.80
2022-10-29T09:06:10.678Z,9.70
2022-10-29T09:09:13.734Z,9.20
2022-10-29T09:11:50.297Z,9.20
2022-10-29T09:14:39.431Z,8.80
2022-10-29T09:17:25.899Z,8.18
2022-10-29T09:20:19.791Z,9.05
2022-10-29T09:22:58.909Z,8.43
2022-10-29T09:25:47.665Z,8.35
2022-10-29T09:28:32.770Z,8.85
2022-10-29T09:31:17.593Z,7.57
2022-10-29T09:33:48.003Z,7.88
2022-10-29T09:36:18.380Z,10.43
2022-10-29T09:41:30.990Z,9.27
2022-10-29T09:44:18.102Z,9.48
2022-10-29T09:47:12.796Z,9.48
2022-10-29T09:49:53.238Z,9.25
2022-10-29T09:52:28.373Z,9.57
2022-10-29T09:54:55.598Z,10.75
2022-10-29T09:57:26.507Z,9.70
2022-10-29T10:00:02.127Z,8.43
2022-10-29T10:02:43.790Z,9.88
2022-10-29T10:05:15.322Z,9.00
2022-10-29T10:07:42.671Z,9.55
2022-10-29T10:10:23.322Z,9.18
2022-10-29T10:12:50.925Z,8.32
2022-10-29T10:15:30.204Z,8.45
2022-10-29T10:17:58.491Z,8.73
2022-10-29T10:20:41.175Z,8.93
2022-10-29T10:23:27.208Z,9.07
2022-10-29T10:26:00.302Z,8.75
2022-10-29T10:28:34.390Z,8.05
2022-10-29T10:31:03.848Z,8.18
2022-10-29T10:33:32.612Z,8.80
2022-10-29T10:36:06.274Z,8.50
2022-10-29T10:38:42.041Z,8.70
2022-10-29T10:41:11.176Z,8.13
2022-10-29T10:43:41.482Z,7.90
2022-10-29T10:46:22.747Z,8.38
2022-10-29T10:49:02.394Z,7.72
2022-10-29T10:51:35.018Z,8.25
2022-10-29T10:54:07.229Z,8.55
2022-10-29T10:56:51.519Z,8.55
2022-10-29T10:59:19.204Z,8.38
2022-10-29T11:01:50.674Z,8.57
2022-10-29T11:04:39.002Z,8.35
2022-10-29T11:07:09.767Z,8.57
2022-10-29T11:09:45.210Z,9.02
2022-10-29T11:12:33.080Z,8.90
2022-10-29T11:15:10.797Z,7.85
2022-10-29T11:17:52.904Z,8.02
2022-10-29T11:20:35.577Z,8.18
2022-10-29T11:23:29.298Z,8.23
2022-10-29T11:26:08.305Z,7.43
2022-10-29T11:28:40.822Z,7.45
2022-10-29T11:31:36.352Z,8.02
2022-10-29T11:34:32.271Z,7.15
2022-10-29T11:37:13.053Z,7.38
2022-10-29T11:39:49.697Z,7.47
2022-10-29T11:42:16.340Z,7.13
2022-10-29T11:44:43.030Z,7.22
2022-10-29T11:47:26.628Z,7.20
2022-10-29T11:50:05.274Z,7.00
2022-10-29T11:52:54.084Z,6.32
2022-10-29T11:55:40.675Z,7.53
2022-10-29T11:58:14.985Z,6.60
2022-10-29T12:01:15.013Z,7.05
2022-10-29T12:03:50.571Z,7.05
2022-10-29T12:06:48.279Z,7.10
2022-10-29T12:09:37.806Z,6.40
2022-10-29T12:12:23.750Z,7.65
2022-10-29T12:15:21.233Z,6.25
2022-10-29T12:18:22.758Z,7.22
2022-10-29T12:21:02.156Z,7.22
2022-10-29T12:24:07.192Z,6.67
2022-10-29T12:26:41.452Z,6.97
2022-10-29T12:29:22.451Z,6.97
2022-10-29T12:32:10.793Z,7.63
2022-10-29T12:34:45.794Z,6.40
2022-10-29T12:37:37.481Z,7.38
2022-10-29T12:40:26.495Z,7.28
2022-10-29T12:42:54.444Z,8.02
2022-10-29T12:45:53.058Z,8.30
2022-10-29T12:48:48.040Z,6.80
2022-10-29T12:51:28.701Z,6.97
2022-10-29T12:54:14.100Z,7.35
2022-10-29T12:56:43.809Z,7.32
2022-10-29T12:59:23.846Z,7.28
2022-10-29T13:05:06.654Z,7.10
2022-10-29T13:07:33.897Z,6.95
2022-10-29T13:10:22.637Z,7.85
2022-10-29T13:13:00.037Z,7.13
2022-10-29T13:15:41.475Z,7.30
2022-10-29T13:18:56.472Z,7.32
2022-10-29T13:22:17.324Z,5.78
2022-10-29T13:24:44.062Z,7.00
2022-10-29T13:27:16.946Z,6.38
2022-10-29T13:29:48.367Z,6.72
2022-10-29T13:32:34.531Z,5.60
2022-10-29T13:35:03.448Z,6.40
2022-10-29T13:37:47.455Z,7.88
2022-10-29T13:40:23.110Z,7.28
2022-10-29T13:43:02.411Z,6.60
2022-10-29T13:45:30.308Z,6.82
2022-10-29T13:48:05.701Z,6.85
2022-10-29T13:50:37.491Z,7.32
2022-10-29T13:53:13.132Z,7.35
2022-10-29T13:55:44.464Z,6.10
2022-10-29T13:58:31.472Z,6.07
2022-10-29T14:01:01.221Z,6.03
2022-10-29T14:03:41.482Z,5.97
2022-10-29T14:06:16.264Z,7.00
2022-10-29T14:09:12.326Z,6.78
2022-10-29T14:11:43.404Z,5.75
2022-10-29T14:14:30.144Z,6.57
2022-10-29T14:17:18.137Z,5.78
2022-10-29T14:19:50.200Z,7.22
2022-10-29T14:22:33.294Z,7.38
2022-10-29T14:25:02.075Z,6.82
2022-10-29T14:27:29.744Z,6.45
2022-10-29T14:30:13.511Z,6.18
2022-10-29T14:32:41.378Z,6.88
2022-10-29T14:35:08.419Z,6.28
2022-10-29T14:37:42.956Z,6.93
2022-10-29T14:40:20.540Z,8.07
2022-10-29T14:45:45.114Z,6.07
2022-10-29T14:48:16.255Z,5.88
2022-10-29T14:50:51.391Z,7.75
2022-10-29T14:53:34.033Z,6.57
2022-10-29T14:56:09.143Z,6.65
2022-10-29T14:58:37.815Z,7.47
2022-10-29T15:01:09.967Z,6.60
2022-10-29T15:03:37.357Z,7.22
2022-10-29T15:06:27.561Z,7.07
2022-10-29T15:09:03.622Z,5.97
2022-10-29T15:11:39.283Z,6.30
2022-10-29T15:14:30.424Z,6.88
2022-10-29T15:16:57.840Z,6.80
2022-10-29T15:19:24.684Z,6.32
2022-10-29T15:21:51.398Z,6.80
2022-10-29T15:24:23.273Z,6.53
2022-10-29T15:26:58.815Z,7.00
2022-10-29T15:29:35.436Z,7.30
2022-10-29T15:32:04.212Z,7.70
2022-10-29T15:34:37.445Z,7.75
2022-10-29T15:37:19.190Z,8.10
2022-10-29T15:39:59.292Z,8.20
2022-10-29T15:42:32.235Z,7.30
2022-10-29T15:45:08.135Z,7.63
2022-10-29T15:47:36.763Z,8.32
2022-10-29T15:50:04.771Z,7.85
2022-10-29T15:52:39.235Z,9.75
2022-10-29T15:55:29.441Z,17.25
2022-10-29T16:00:28.421Z,14.63
2022-10-29T16:02:59.842Z,13.90
2022-10-29T16:05:26.683Z,13.48
2022-10-29T16:07:53.479Z,11.68
2022-10-29T16:10:21.390Z,12.35
2022-10-29T16:12:49.736Z,11.63
2022-10-29T16:15:18.946Z,12.27
2022-10-29T16:17:46.915Z,11.40
2022-10-29T16:20:19.289Z,11.25
2022-10-29T16:22:47.733Z,11.57
2022-10-29T16:25:28.198Z,11.80
2022-10-29T16:27:55.639Z,12.88
2022-10-29T16:30:23.524Z,13.43
2022-10-29T16:32:50.943Z,13.43
2022-10-29T16:35:23.781Z,16.23
2022-10-29T16:37:51.454Z,17.05
2022-10-29T16:40:19.792Z,17.05
2022-10-29T16:42:47.364Z,15.15
2022-10-29T16:45:32.238Z,13.10
2022-10-29T16:47:59.359Z,15.05
2022-10-29T16:50:31.184Z,12.82
2022-10-29T16:52:58.639Z,12.18
2022-10-29T16:55:26.852Z,12.68
2022-10-29T16:57:53.662Z,12.13
2022-10-29T17:00:20.894Z,13.13
2022-10-29T17:02:47.605Z,12.23
2022-10-29T17:05:15.299Z,13.20
2022-10-29T17:07:41.910Z,16.55
2022-10-29T17:10:08.965Z,18.17
2022-10-29T17:12:36.589Z,19.75
2022-10-29T17:15:03.356Z,18.65
2022-10-29T17:17:30.912Z,21.08
2022-10-29T17:19:58.033Z,20.30
2022-10-29T17:22:24.776Z,21.15
2022-10-29T17:24:51.356Z,19.33
2022-10-29T17:27:17.988Z,16.05
2022-10-29T17:29:44.590Z,15.27
2022-10-29T17:32:11.172Z,15.05
2022-10-29T17:34:37.812Z,13.98
2022-10-29T17:37:04.540Z,13.57
2022-10-29T17:39:31.173Z,15.07
2022-10-29T17:41:58.020Z,13.40
2022-10-29T17:44:28.105Z,13.32
2022-10-29T17:46:54.979Z,13.65
2022-10-29T17:49:22.183Z,14.27
2022-10-29T17:51:48.819Z,12.88
2022-10-29T17:54:16.268Z,13.32
2022-10-29T17:56:42.964Z,12.18
2022-10-29T17:59:09.947Z,13.07
2022-10-29T18:01:36.775Z,13.23
2022-10-29T18:04:05.132Z,12.55
2022-10-29T18:06:32.456Z,14.68
2022-10-29T18:09:00.475Z,14.30
2022-10-29T18:11:27.535Z,12.95
2022-10-29T18:13:55.695Z,13.70
2022-10-29T18:16:25.824Z,14.98
2022-10-29T18:19:02.276Z,13.13
2022-10-29T18:21:30.617Z,13.45
2022-10-29T18:23:58.357Z,13.85
2022-10-29T18:26:28.467Z,14.32
2022-10-29T18:28:55.852Z,15.05
2022-10-29T18:31:25.338Z,14.18
2022-10-29T18:33:51.975Z,14.52
2022-10-29T18:36:18.703Z,14.68
2022-10-29T18:38:51.231Z,14.90
2022-10-29T18:41:18.220Z,15.38
2022-10-29T18:43:45.083Z,16.15
2022-10-29T18:46:12.095Z,15.32
2022-10-29T18:48:40.815Z,17.42
2022-10-29T18:51:16.296Z,16.88
2022-10-29T18:53:43.040Z,16.80
2022-10-29T18:56:12.019Z,15.80
2022-10-29T18:58:39.048Z,15.85
2022-10-29T19:01:11.354Z,17.40
2022-10-29T19:03:38.640Z,18.05
2022-10-29T19:06:11.818Z,18.42
2022-10-29T19:08:40.633Z,16.92
2022-10-29T19:11:23.041Z,16.35
2022-10-29T19:13:51.398Z,16.35
2022-10-29T19:16:18.127Z,17.83
2022-10-29T19:18:44.734Z,17.92
2022-10-29T19:21:17.036Z,17.98
2022-10-29T19:23:43.855Z,18.42
2022-10-29T19:26:16.575Z,17.10
2022-10-29T19:28:44.971Z,21.45
2022-10-29T19:31:14.481Z,20.60
2022-10-29T19:33:41.562Z,22.30
2022-10-29T19:36:09.300Z,19.15
2022-10-29T19:38:36.212Z,22.25
2022-10-29T19:41:02.855Z,20.60
2022-10-29T19:43:30.005Z,21.50
2022-10-29T19:45:57.120Z,20.88
2022-10-29T19:48:24.561Z,21.42
2022-10-29T19:50:53.867Z,19.60
2022-10-29T19:53:21.153Z,21.17
2022-10-29T19:55:50.396Z,20.00
2022-10-29T19:58:18.049Z,19.20
2022-10-29T20:00:44.787Z,20.98
2022-10-29T20:03:12.179Z,19.27
2022-10-29T20:05:39.962Z,19.48
2022-10-29T20:08:10.111Z,18.60
2022-10-29T20:10:39.929Z,20.13
2022-10-29T20:13:06.602Z,18.42
2022-10-29T20:15:33.293Z,19.85
2022-10-29T20:18:00.084Z,19.02
2022-10-29T20:20:27.006Z,21.73
2022-10-29T20:22:53.926Z,20.10
2022-10-29T20:25:24.000Z,30.35
2022-10-29T20:27:51.001Z,27.27
2022-10-29T20:30:17.849Z,24.40
2022-10-29T20:32:44.467Z,25.88
2022-10-29T20:35:11.119Z,22.88
2022-10-29T20:37:37.702Z,24.77
2022-10-29T20:40:05.256Z,25.92
2022-10-29T20:42:31.874Z,27.02
2022-10-29T20:44:58.435Z,26.08
2022-10-29T20:47:25.308Z,26.23
2022-10-29T20:49:51.888Z,25.42
2022-10-29T20:52:18.492Z,24.83
2022-10-29T20:54:45.109Z,24.55
2022-10-29T20:57:11.757Z,23.10
2022-10-29T20:59:38.361Z,25.00
2022-10-29T21:02:05.091Z,26.42
2022-10-29T21:04:31.759Z,25.65
2022-10-29T21:06:58.416Z,25.08
2022-10-29T21:09:24.998Z,25.23
2022-10-29T21:11:51.657Z,24.13
2022-10-29T21:14:18.263Z,25.58
2022-10-29T21:16:44.904Z,24.30
2022-10-29T21:19:11.581Z,25.35
2022-10-29T21:21:39.942Z,26.40
2022-10-29T21:24:06.852Z,25.92
2022-10-29T21:26:33.438Z,23.50
2022-10-29T21:29:00.056Z,25.27
2022-10-29T21:31:26.803Z,24.33
2022-10-29T21:33:54.338Z,24.27
2022-10-29T21:36:21.881Z,23.83
2022-10-29T21:38:48.732Z,25.00
2022-10-29T21:41:15.896Z,22.70
2022-10-29T21:46:33.036Z,24.08
2022-10-29T21:48:59.741Z,23.85
2022-10-29T21:51:26.310Z,22.08
2022-10-29T21:53:52.882Z,23.55
2022-10-29T21:56:19.751Z,24.25
2022-10-29T21:58:46.371Z,23.63
2022-10-29T22:01:15.217Z,24.20
2022-10-29T22:03:43.673Z,22.42
2022-10-29T22:06:13.338Z,22.83
2022-10-29T22:08:40.924Z,24.73
2022-10-29T22:11:07.755Z,24.20
2022-10-29T22:13:35.236Z,23.83
2022-10-29T22:16:03.156Z,22.75
2022-10-29T22:18:30.426Z,23.38
2022-10-29T22:21:11.354Z,23.40
2022-10-29T22:23:43.029Z,24.75
2022-10-29T22:26:09.764Z,23.27
2022-10-29T22:28:36.492Z,22.88
2022-10-29T22:31:04.490Z,23.77
2022-10-29T22:33:32.015Z,24.38
2022-10-29T22:36:07.151Z,23.63
2022-10-29T22:38:33.843Z,23.85
2022-10-29T22:41:18.737Z,22.58
2022-10-29T22:43:45.698Z,23.13
2022-10-29T22:46:14.550Z,24.30
2022-10-29T22:48:41.444Z,24.60
2022-10-29T22:51:13.771Z,23.67
2022-10-29T22:53:40.739Z,22.73
2022-10-29T22:56:07.978Z,24.05
2022-10-29T22:58:34.773Z,25.63
2022-10-29T23:01:13.790Z,26.15
2022-10-29T23:03:41.694Z,24.67
2022-10-29T23:06:11.105Z,26.95
2022-10-29T23:08:37.839Z,24.90
2022-10-29T23:11:11.749Z,25.95
2022-10-29T23:13:38.356Z,24.70
2022-10-29T23:16:05.479Z,24.42
2022-10-29T23:18:32.130Z,23.38
2022-10-29T23:21:04.004Z,25.50
2022-10-29T23:23:31.635Z,23.50
2022-10-29T23:26:01.829Z,25.90
2022-10-29T23:30:57.593Z,23.02
2022-10-29T23:33:24.686Z,24.52
2022-10-29T23:35:51.431Z,24.95
2022-10-29T23:38:18.319Z,24.45
2022-10-29T23:40:46.911Z,23.13
2022-10-29T23:43:14.520Z,22.92
2022-10-29T23:45:41.753Z,22.77
2022-10-29T23:48:09.763Z,24.30
2022-10-29T23:50:37.809Z,23.75
2022-10-29T23:53:05.049Z,22.92
2022-10-29T23:55:31.757Z,23.33
2022-10-29T23:57:58.354Z,22.95
